Time;durP1;ratioP1;P1;durP2;ratioP2;P2;SDS_P1;SDS_P2;PMS_P1;PMS_P2;Temp;Humidity;BMP_temperature;BMP_pressure;BME280_temperature;BME280_humidity;BME280_pressure;Samples;Min_cycle;Max_cycle;Signal;HPM_P1;HPM_P2
2024/01/17 00:00:21;;;;;;;24.03;18.23;;;2.70;99.90;;;2.75;80.48;99940.13;4974729;28;20091;-66
2024/01/17 00:02:49;;;;;;;24.35;17.80;;;2.70;99.90;;;2.67;80.80;99917.44;4975053;28;20102;-66
2024/01/17 00:05:18;;;;;;;28.90;19.63;;;2.70;99.90;;;2.81;80.44;99928.88;4974623;28;20400;-66
2024/01/17 00:07:47;;;;;;;26.50;17.73;;;2.70;99.90;;;2.75;80.60;99908.81;4974472;28;20049;-67
2024/01/17 00:10:16;;;;;;;25.77;18.00;;;2.70;99.90;;;2.70;80.74;99922.66;4974140;28;20039;-67
2024/01/17 00:12:44;;;;;;;29.80;17.93;;;2.60;99.90;;;2.71;81.16;99919.19;4989512;28;20058;-66
2024/01/17 00:15:13;;;;;;;26.40;19.07;;;2.70;99.90;;;2.72;81.07;99915.72;4974189;28;20523;-66
2024/01/17 00:17:42;;;;;;;33.50;19.70;;;2.60;99.90;;;2.77;81.11;99918.41;4974363;28;20043;-67
2024/01/17 00:20:12;;;;;;;24.88;18.15;;;2.70;99.90;;;2.78;81.33;99917.53;4974162;28;20122;-67
2024/01/17 00:22:40;;;;;;;27.83;19.20;;;2.70;99.90;;;2.80;80.77;99918.44;4974155;28;20067;-66
2024/01/17 00:25:09;;;;;;;28.83;19.40;;;2.70;99.90;;;2.81;80.74;99917.59;4974001;28;20125;-67
2024/01/17 00:27:38;;;;;;;27.17;18.90;;;2.70;99.90;;;2.83;80.65;99913.25;4974242;28;20129;-66
2024/01/17 00:30:08;;;;;;;27.93;18.50;;;2.70;99.90;;;2.78;80.52;99899.25;4974098;28;20046;-65
2024/01/17 00:32:37;;;;;;;29.08;18.05;;;2.70;99.90;;;2.82;80.07;99890.59;4973992;28;20101;-66
2024/01/17 00:35:08;;;;;;;24.90;18.63;;;2.70;99.90;;;2.77;79.81;99893.16;4973869;28;20059;-67
2024/01/17 00:37:38;;;;;;;27.47;18.00;;;2.70;99.90;;;2.82;79.95;99890.59;4974079;28;20081;-67
2024/01/17 00:40:08;;;;;;;31.03;18.63;;;2.70;99.90;;;2.80;79.72;99893.19;4973959;28;20070;-67
2024/01/17 00:42:37;;;;;;;;;;;2.70;99.90;;;2.76;79.50;99883.59;4974201;28;20055;-66
2024/01/17 00:45:06;;;;;;;25.67;18.20;;;2.70;99.90;;;2.82;79.45;99888.88;4973627;28;19945;-66
2024/01/17 00:47:36;;;;;;;28.02;17.90;;;2.70;99.90;;;2.69;79.30;99859.16;4988840;28;20053;-66
2024/01/17 00:50:06;;;;;;;25.63;18.63;;;2.70;99.90;;;2.89;79.26;99879.34;4988690;28;20484;-66
2024/01/17 00:52:35;;;;;;;26.83;17.93;;;2.80;99.90;;;2.94;79.21;99875.06;4973370;28;20074;-66
2024/01/17 00:55:04;;;;;;;26.37;18.67;;;2.90;99.90;;;2.92;78.96;99866.34;4973561;28;20050;-66
2024/01/17 00:57:32;;;;;;;25.53;19.13;;;2.80;99.90;;;2.97;78.87;99865.53;4988663;28;20397;-66
2024/01/17 01:00:01;;;;;;;28.30;18.33;;;2.80;99.90;;;2.99;78.93;99868.16;4973596;28;20043;-65
2024/01/17 01:02:29;;;;;;;24.47;18.20;;;2.90;99.90;;;3.03;78.75;99867.31;4973340;28;20109;-66
2024/01/17 01:04:57;;;;;;;25.10;18.47;;;2.90;99.90;;;3.00;78.53;99860.31;4973244;28;20051;-66
2024/01/17 01:07:27;;;;;;;24.60;17.83;;;2.90;99.90;;;3.02;78.29;99860.34;4973535;28;20267;-66
2024/01/17 01:09:55;;;;;;;26.88;18.17;;;2.90;99.90;;;2.97;78.27;99848.97;4973184;28;20133;-67
2024/01/17 01:12:25;;;;;;;22.20;17.53;;;2.90;99.90;;;2.98;78.26;99850.75;4973434;28;20448;-66
2024/01/17 01:14:53;;;;;;;24.30;17.00;;;2.80;99.90;;;2.92;78.07;99850.69;4988222;28;20051;-66
2024/01/17 01:17:22;;;;;;;30.60;17.77;;;2.80;99.90;;;3.04;77.83;99858.63;4972990;28;20118;-66
2024/01/17 01:19:50;;;;;;;29.73;18.07;;;2.90;99.90;;;2.94;77.63;99855.06;4973044;28;20046;-66
2024/01/17 01:22:18;;;;;;;23.10;17.70;;;2.80;99.90;;;3.03;77.60;99849.91;4973030;28;20045;-67
2024/01/17 01:24:48;;;;;;;25.27;17.50;;;2.90;99.90;;;3.03;77.37;99830.75;4972927;28;20094;-66
2024/01/17 01:27:16;;;;;;;25.15;18.20;;;2.90;99.90;;;3.06;77.26;99838.63;4973121;28;20660;-66
2024/01/17 01:29:45;;;;;;;25.97;17.20;;;3.00;99.90;;;3.06;76.98;99833.41;4972783;28;20046;-65
2024/01/17 01:32:13;;;;;;;22.90;17.10;;;2.90;99.90;;;3.01;76.97;99822.91;4972830;28;20134;-65
2024/01/17 01:34:42;;;;;;;23.83;17.57;;;2.90;99.90;;;2.99;76.96;99826.38;4972682;28;20051;-66
2024/01/17 01:37:10;;;;;;;25.60;16.90;;;2.90;99.90;;;2.99;77.15;99828.97;4972966;28;20130;-65
2024/01/17 01:39:39;;;;;;;24.03;17.13;;;2.80;99.90;;;2.80;77.13;99788.78;4972625;28;20170;-66
2024/01/17 01:42:08;;;;;;;23.50;17.13;;;2.80;99.90;;;2.89;76.92;99816.69;4972826;28;20417;-66
2024/01/17 01:44:37;;;;;;;27.40;18.55;;;2.80;99.90;;;2.90;77.46;99819.34;4972617;28;20436;-66
2024/01/17 01:47:07;;;;;;;25.37;17.73;;;2.80;99.90;;;2.88;77.56;99814.94;4972557;28;20047;-66
2024/01/17 01:49:37;;;;;;;28.77;18.17;;;2.80;99.90;;;2.94;77.39;99808.06;4972433;28;20493;-66
2024/01/17 01:52:08;;;;;;;25.37;17.93;;;2.80;99.90;;;2.88;77.54;99808.00;4972816;28;20042;-66
2024/01/17 01:54:37;;;;;;;26.83;18.98;;;2.70;99.90;;;2.91;77.34;99796.69;4973068;28;20043;-66
2024/01/17 01:57:08;;;;;;;25.75;18.25;;;2.80;99.90;;;2.85;77.57;99801.84;4987673;28;20093;-66
2024/01/17 01:59:37;;;;;;;29.37;18.73;;;2.80;99.90;;;2.78;77.60;99787.00;4987548;28;20057;-65
2024/01/17 02:02:06;;;;;;;24.23;19.00;;;2.70;99.90;;;2.78;77.50;99780.06;4972322;28;20688;-66
2024/01/17 02:04:35;;;;;;;29.30;18.53;;;2.70;99.90;;;2.88;77.42;99791.47;4971745;28;20574;-66
2024/01/17 02:07:04;;;;;;;24.47;17.27;;;2.70;99.90;;;2.91;77.62;99775.81;4972264;28;20043;-66
2024/01/17 02:09:32;;;;;;;24.10;18.50;;;2.80;99.90;;;2.90;77.69;99774.94;4971138;28;20564;-66
2024/01/17 02:12:01;;;;;;;27.20;18.20;;;2.80;99.90;;;2.88;77.42;99770.56;4972544;28;20113;-66
2024/01/17 02:14:32;;;;;;;24.10;16.97;;;2.80;99.90;;;2.93;77.34;99755.81;4972445;28;20436;-65
2024/01/17 02:17:00;;;;;;;24.10;17.10;;;2.80;99.90;;;2.86;77.64;99759.25;4972086;28;20047;-67
2024/01/17 02:19:28;;;;;;;30.67;19.37;;;2.70;99.90;;;2.86;77.26;99746.19;4972519;28;20447;-65
2024/01/17 02:21:57;;;;;;;29.50;18.80;;;2.80;99.90;;;2.83;77.72;99746.16;4972361;28;20062;-66
2024/01/17 02:24:28;;;;;;;27.17;19.63;;;2.70;99.90;;;2.81;77.57;99746.13;4972047;28;20039;-67
2024/01/17 02:26:59;;;;;;;31.03;19.70;;;2.70;99.90;;;2.81;77.75;99743.53;4972037;28;20109;-66
2024/01/17 02:29:29;;;;;;;25.83;18.90;;;2.70;99.90;;;2.86;77.67;99740.97;4987033;28;20054;-66
2024/01/17 02:31:58;;;;;;;28.83;19.15;;;2.70;99.90;;;2.80;77.97;99735.69;4971947;28;20500;-66
2024/01/17 02:34:27;;;;;;;28.17;19.17;;;2.70;99.90;;;2.85;77.89;99728.75;4971940;28;20070;-67
2024/01/17 02:36:56;;;;;;;33.10;20.00;;;2.70;99.90;;;2.80;77.95;99715.69;4971958;28;20053;-66
2024/01/17 02:39:24;;;;;;;31.90;19.63;;;2.70;99.90;;;2.11;78.07;99603.78;4987018;28;20054;-66
2024/01/17 02:41:54;;;;;;;27.90;19.70;;;2.70;99.90;;;2.73;78.32;99709.53;4972149;28;20055;-66
2024/01/17 02:44:23;;;;;;;27.08;19.95;;;2.60;99.90;;;2.73;78.56;99709.53;4971859;28;20042;-66
2024/01/17 02:46:51;;;;;;;29.17;19.27;;;2.60;99.90;;;2.73;78.07;99711.25;4987088;28;20121;-66
2024/01/17 02:49:21;;;;;;;27.70;20.60;;;2.60;99.90;;;2.74;78.53;99713.91;4971992;28;20058;-66
2024/01/17 02:51:49;;;;;;;31.08;20.50;;;2.60;99.90;;;2.77;78.43;99715.66;4972002;28;20038;-67
2024/01/17 02:54:18;;;;;;;32.57;20.70;;;2.70;99.90;;;2.67;78.54;99686.00;4971706;28;20058;-66
2024/01/17 02:56:46;;;;;;;28.00;19.33;;;2.70;99.90;;;2.80;78.40;99706.97;4971807;28;20059;-66
2024/01/17 02:59:16;;;;;;;29.87;19.20;;;2.70;99.90;;;2.89;78.49;99704.41;4971990;28;20035;-66
2024/01/17 03:01:46;;;;;;;31.42;19.45;;;2.70;99.90;;;2.80;78.48;99694.81;4972040;28;20045;-67
2024/01/17 03:04:15;;;;;;;28.20;19.60;;;2.80;99.90;;;2.87;78.25;99706.16;4971766;28;20058;-66
2024/01/17 03:06:45;;;;;;;25.67;19.07;;;2.70;99.90;;;2.93;78.46;99693.13;4971716;28;20070;-66
2024/01/17 03:09:14;;;;;;;;;;;2.80;99.90;;;2.90;78.37;99695.75;4972183;28;20039;-66
2024/01/17 03:11:43;;;;;;;27.77;19.70;;;2.80;99.90;;;2.91;78.43;99693.13;4971639;28;19933;-66
2024/01/17 03:14:11;;;;;;;28.00;19.97;;;2.80;99.90;;;2.89;78.52;99670.47;4971857;28;20047;-67
2024/01/17 03:16:41;;;;;;;29.73;19.70;;;2.70;99.90;;;2.91;78.65;99669.63;4973164;28;20535;-66
2024/01/17 03:19:09;;;;;;;29.38;18.80;;;2.80;99.90;;;2.89;78.57;99662.66;4975308;28;20051;-66
2024/01/17 03:21:38;;;;;;;26.07;18.43;;;2.70;99.90;;;2.91;78.68;99653.09;4975298;28;20102;-66
2024/01/17 03:24:06;;;;;;;26.43;19.53;;;2.80;99.90;;;2.90;78.78;99654.84;4974928;28;20142;-67
2024/01/17 03:26:35;;;;;;;29.00;19.43;;;2.80;99.90;;;2.89;79.02;99645.25;4975457;28;20396;-66
2024/01/17 03:29:03;;;;;;;28.73;18.73;;;2.80;99.90;;;2.90;78.77;99646.13;4975026;28;20086;-65
2024/01/17 03:31:32;;;;;;;28.80;19.07;;;2.80;99.90;;;2.86;78.92;99642.63;4974986;28;20045;-66
2024/01/17 03:34:01;;;;;;;27.50;18.30;;;2.70;99.90;;;2.82;78.90;99632.16;4974853;28;20094;-67
2024/01/17 03:36:30;;;;;;;26.25;19.80;;;2.70;99.90;;;2.66;78.86;99629.44;4975441;28;20059;-66
2024/01/17 03:38:58;;;;;;;28.63;19.77;;;2.60;99.90;;;1.87;78.91;99501.03;4975147;28;20109;-66
2024/01/17 03:41:27;;;;;;;29.03;18.97;;;2.50;99.90;;;2.33;79.81;99612.66;4974788;28;20054;-67
2024/01/17 03:43:57;;;;;;;28.30;18.00;;;2.30;99.90;;;2.40;80.15;99615.31;4975089;28;20039;-66
2024/01/17 03:46:26;;;;;;;;;;;2.30;99.90;;;2.26;80.18;99601.31;4975561;28;20075;-66
2024/01/17 03:48:54;;;;;;;31.53;19.77;;;2.30;99.90;;;2.28;80.94;99596.09;4975017;28;19925;-67
2024/01/17 03:51:24;;;;;;;26.67;19.77;;;2.20;99.90;;;2.32;80.63;99582.22;4974888;28;20034;-66
2024/01/17 03:53:53;;;;;;;28.02;19.20;;;2.30;99.90;;;2.25;80.97;99569.97;4974889;28;20408;-66
2024/01/17 03:56:22;;;;;;;34.53;21.20;;;2.20;99.90;;;2.30;80.97;99561.38;4973614;28;20480;-66
2024/01/17 03:58:51;;;;;;;32.13;20.07;;;2.30;99.90;;;2.30;80.78;99553.53;4974822;28;20186;-66
2024/01/17 04:01:19;;;;;;;27.53;19.47;;;2.20;99.90;;;2.26;80.88;99558.72;4974582;28;20495;-66
2024/01/17 04:03:49;;;;;;;27.93;20.17;;;2.20;99.90;;;2.27;81.18;99550.88;4974997;28;20054;-66
2024/01/17 04:06:17;;;;;;;32.03;20.50;;;2.20;99.90;;;2.24;81.34;99550.00;4975001;28;20057;-66
2024/01/17 04:08:47;;;;;;;31.10;19.37;;;2.20;99.90;;;2.07;81.46;99544.63;4974408;28;20035;-66
2024/01/17 04:11:15;;;;;;;30.90;19.77;;;2.10;99.90;;;1.77;82.40;99533.97;4989413;28;20051;-67
2024/01/17 04:13:44;;;;;;;29.83;20.80;;;1.90;99.90;;;1.60;83.98;99523.41;4974295;28;20094;-65
2024/01/17 04:16:12;;;;;;;34.83;21.37;;;1.60;99.90;;;1.47;84.63;99518.91;4974167;28;20452;-66
2024/01/17 04:18:41;;;;;;;30.53;20.50;;;1.50;99.90;;;1.41;85.39;99516.28;4974489;28;20054;-66
2024/01/17 04:21:09;;;;;;;28.57;20.50;;;1.40;99.90;;;1.30;86.18;99512.66;4974114;28;20064;-66
2024/01/17 04:23:38;;;;;;;31.50;20.47;;;1.30;99.90;;;1.31;86.84;99506.63;4974145;28;20062;-67
2024/01/17 04:26:09;;;;;;;34.23;21.70;;;1.30;99.90;;;1.28;87.41;99495.31;4974225;28;20047;-66
2024/01/17 04:28:37;;;;;;;34.97;20.60;;;1.30;99.90;;;1.41;87.39;99479.81;4973395;28;20042;-66
2024/01/17 04:31:05;;;;;;;27.43;19.57;;;1.40;99.90;;;1.22;87.46;99471.81;4973838;28;20042;-66
2024/01/17 04:33:34;;;;;;;32.97;20.70;;;1.40;99.90;;;1.35;87.55;99484.06;4973912;28;20405;-66
2024/01/17 04:36:03;;;;;;;28.97;19.67;;;1.40;99.90;;;1.45;87.63;99483.31;4974057;28;20500;-65
2024/01/17 04:38:31;;;;;;;32.83;20.43;;;1.50;99.90;;;1.46;86.93;99472.91;4974344;28;20101;-66
2024/01/17 04:41:00;;;;;;;28.13;18.83;;;1.50;99.90;;;1.50;86.95;99468.59;4974091;28;20134;-67
2024/01/17 04:43:29;;;;;;;31.43;19.23;;;1.50;99.90;;;1.36;86.34;99438.94;4974058;28;20047;-67
2024/01/17 04:45:57;;;;;;;32.85;19.50;;;1.60;99.90;;;1.50;86.37;99463.38;4973634;28;20485;-67
2024/01/17 04:48:26;;;;;;;26.37;18.47;;;1.60;99.90;;;1.46;86.40;99459.88;4973599;28;20066;-66
2024/01/17 04:50:58;;;;;;;32.47;20.00;;;1.50;99.90;;;1.52;86.56;99456.44;4973401;28;20053;-65
2024/01/17 04:53:27;;;;;;;30.30;18.87;;;1.50;99.90;;;1.41;86.07;99450.28;4973563;28;20097;-66
2024/01/17 04:55:56;;;;;;;29.50;18.67;;;1.50;99.90;;;1.30;86.80;99438.88;4973464;28;20111;-66
2024/01/17 04:58:24;;;;;;;32.67;18.87;;;1.40;99.90;;;1.53;86.58;99446.03;4973477;28;20073;-66
2024/01/17 05:00:54;;;;;;;31.67;19.10;;;1.50;99.90;;;1.66;86.21;99434.88;4973393;28;20066;-65
2024/01/17 05:03:22;;;;;;;33.25;20.35;;;1.60;99.90;;;1.79;85.45;99435.81;4973368;28;20043;-66
2024/01/17 05:05:51;;;;;;;29.67;17.07;;;1.80;99.90;;;1.92;85.21;99426.38;4973648;28;20054;-66
2024/01/17 05:08:19;;;;;;;26.43;17.83;;;1.90;99.90;;;1.98;84.73;99421.16;4973268;28;20093;-66
2024/01/17 05:10:47;;;;;;;24.57;16.00;;;1.90;99.90;;;2.07;83.95;99416.88;4973189;28;20126;-66
2024/01/17 05:13:16;;;;;;;25.40;18.00;;;2.00;99.90;;;2.15;83.48;99396.94;4973197;28;20055;-67
2024/01/17 05:15:44;;;;;;;27.37;17.57;;;2.10;99.90;;;2.28;83.13;99397.91;4973422;28;20058;-66
2024/01/17 05:18:14;;;;;;;24.00;17.00;;;2.20;99.90;;;2.30;82.47;99385.72;4973347;28;20057;-67
2024/01/17 05:20:43;;;;;;;24.83;17.15;;;2.20;99.90;;;2.34;82.30;99375.28;4973504;28;20496;-66
2024/01/17 05:23:11;;;;;;;28.20;17.20;;;2.20;99.90;;;2.38;81.59;99377.06;4973350;28;20110;-66
2024/01/17 05:25:39;;;;;;;30.37;16.67;;;2.30;99.90;;;2.47;81.58;99381.44;4972919;28;20481;-66
2024/01/17 05:28:08;;;;;;;27.23;16.30;;;2.40;99.90;;;2.50;81.46;99376.22;4972808;28;20122;-66
2024/01/17 05:30:36;;;;;;;27.07;17.27;;;2.40;99.90;;;2.46;80.99;99377.97;4973368;28;20046;-66
2024/01/17 05:33:05;;;;;;;25.33;17.77;;;2.40;99.90;;;2.46;80.77;99379.69;4972671;28;20101;-66
2024/01/17 05:35:36;;;;;;;23.20;17.17;;;2.40;99.90;;;2.46;80.85;99371.88;4972997;28;20086;-65
2024/01/17 05:38:04;;;;;;;26.77;16.90;;;2.40;99.90;;;2.48;80.50;99367.53;4987830;28;20653;-66
2024/01/17 05:40:33;;;;;;;32.03;16.20;;;2.40;99.90;;;2.42;80.50;99373.59;4971810;28;20075;-66
2024/01/17 05:43:02;;;;;;;28.07;16.33;;;2.40;99.90;;;2.33;80.55;99377.91;4973193;28;20094;-66
2024/01/17 05:45:30;;;;;;;24.83;16.37;;;2.30;99.90;;;2.45;80.40;99360.59;4972580;28;20528;-67
2024/01/17 05:47:59;;;;;;;28.53;16.20;;;2.40;99.90;;;2.33;79.93;99355.31;4972539;28;20050;-67
2024/01/17 05:50:27;;;;;;;24.47;15.70;;;2.30;99.90;;;2.26;80.42;99356.16;4972775;28;20488;-66
2024/01/17 05:52:57;;;;;;;27.00;15.83;;;2.20;99.90;;;2.02;80.65;99329.97;4972773;28;20050;-67
2024/01/17 05:55:26;;;;;;;23.85;17.20;;;2.10;99.90;;;2.14;80.63;99348.28;4972448;28;20047;-66
2024/01/17 05:57:55;;;;;;;23.73;15.60;;;2.10;99.90;;;2.16;81.01;99317.00;4972456;28;20039;-65
2024/01/17 06:00:24;;;;;;;27.53;16.17;;;2.10;99.90;;;2.14;80.63;99327.44;4972333;28;20113;-67
2024/01/17 06:02:52;;;;;;;25.23;16.67;;;2.10;99.90;;;1.87;81.07;99313.38;4972506;28;20043;-66
2024/01/17 06:05:22;;;;;;;24.53;16.63;;;1.90;99.90;;;1.98;81.17;99323.00;4972508;28;20082;-66
2024/01/17 06:07:50;;;;;;;31.23;16.70;;;1.90;99.90;;;1.95;81.46;99312.56;4972289;28;20767;-67
2024/01/17 06:10:20;;;;;;;25.90;16.73;;;1.90;99.90;;;1.94;81.26;99304.72;4972451;28;20390;-66
2024/01/17 06:12:48;;;;;;;25.08;16.05;;;2.00;99.90;;;1.99;80.96;99308.22;4972443;28;20070;-66
2024/01/17 06:15:18;;;;;;;27.63;17.10;;;2.00;99.90;;;2.06;81.09;99308.25;4972166;28;20073;-66
2024/01/17 06:17:46;;;;;;;28.55;16.23;;;2.00;99.90;;;2.14;80.91;99314.38;4972254;28;20050;-66
2024/01/17 06:20:16;;;;;;;24.40;16.17;;;2.10;99.90;;;2.19;80.90;99311.81;4987107;28;20495;-67
2024/01/17 06:22:45;;;;;;;23.52;15.35;;;2.10;99.90;;;2.24;80.74;99305.75;4972123;28;20107;-66
2024/01/17 06:25:13;;;;;;;20.40;15.67;;;2.20;99.90;;;2.24;80.53;99304.84;4972028;28;20389;-66
2024/01/17 06:27:43;;;;;;;29.00;16.30;;;2.20;99.90;;;2.20;80.61;99297.88;4987227;28;20050;-66
2024/01/17 06:30:13;;;;;;;23.10;16.13;;;2.20;99.90;;;1.98;80.33;99296.06;4971972;28;20527;-67
2024/01/17 06:32:41;;;;;;;26.50;15.13;;;2.00;99.90;;;1.82;80.52;99306.41;4972003;28;20054;-66
2024/01/17 06:35:11;;;;;;;26.70;16.03;;;1.80;99.90;;;1.89;80.45;99291.69;4971953;28;20051;-67
2024/01/17 06:37:39;;;;;;;28.17;15.48;;;1.90;99.90;;;1.99;80.34;99280.44;4971994;28;20054;-67
2024/01/17 06:40:10;;;;;;;23.90;15.63;;;1.90;99.90;;;1.94;80.44;99266.50;4972051;28;20070;-66
2024/01/17 06:42:39;;;;;;;26.93;16.47;;;1.90;99.90;;;2.04;80.08;99273.50;4972280;28;20061;-66
2024/01/17 06:45:10;;;;;;;27.03;16.33;;;2.00;99.90;;;2.07;79.78;99265.66;4972094;28;20126;-67
2024/01/17 06:47:39;;;;;;;30.70;17.10;;;2.10;99.90;;;2.20;79.77;99267.47;4971941;28;20520;-66
2024/01/17 06:50:09;;;;;;;32.23;19.03;;;2.10;99.90;;;2.28;79.62;99268.38;4972019;28;20051;-67
2024/01/17 06:52:38;;;;;;;29.88;17.17;;;2.20;99.90;;;2.31;79.43;99265.75;4973946;28;20074;-67
2024/01/17 06:55:07;;;;;;;28.33;18.67;;;2.30;99.90;;;2.28;79.11;99254.44;4975649;28;20047;-67
2024/01/17 06:57:36;;;;;;;30.65;17.30;;;2.30;99.90;;;2.17;79.38;99254.41;4975957;28;20043;-66
2024/01/17 07:00:06;;;;;;;32.77;18.00;;;2.20;99.90;;;1.89;79.88;99257.81;4990734;28;20523;-66
2024/01/17 07:02:36;;;;;;;30.50;17.77;;;2.00;99.90;;;1.68;80.79;99253.34;4975610;28;20607;-67
2024/01/17 07:05:05;;;;;;;34.13;18.45;;;1.80;99.90;;;1.48;82.03;99246.31;4975787;28;20062;-66
2024/01/17 07:07:32;;;;;;;32.30;18.20;;;1.60;99.90;;;1.33;83.15;99235.81;4975439;28;20042;-66
2024/01/17 07:10:03;;;;;;;34.63;19.63;;;1.50;99.90;;;1.25;84.08;99227.09;4975695;28;20105;-67
2024/01/17 07:12:31;;;;;;;31.98;20.15;;;1.30;99.90;;;1.16;84.75;99229.63;4975653;28;20065;-66
2024/01/17 07:14:59;;;;;;;38.63;20.43;;;1.20;99.90;;;0.97;85.37;99230.38;4974375;28;20078;-65
2024/01/17 07:17:28;;;;;;;40.17;20.90;;;1.10;99.90;;;0.93;86.11;99232.06;4975250;28;20109;-67
2024/01/17 07:19:58;;;;;;;39.47;22.17;;;1.00;99.90;;;0.90;86.33;99219.03;4975460;28;20074;-66
2024/01/17 07:22:26;;;;;;;32.97;21.30;;;1.00;99.90;;;0.99;86.81;99223.47;4975485;28;20054;-66
2024/01/17 07:24:54;;;;;;;39.43;23.00;;;1.00;99.90;;;1.01;86.50;99219.13;4975069;28;20481;-67
2024/01/17 07:27:23;;;;;;;37.33;21.10;;;1.10;99.90;;;0.93;86.62;99208.66;4975179;28;20070;-67
2024/01/17 07:29:51;;;;;;;40.77;21.73;;;1.00;99.90;;;0.90;86.52;99214.72;4975117;28;20046;-67
2024/01/17 07:32:20;;;;;;;30.43;21.00;;;1.00;99.90;;;0.99;86.63;99203.47;4975012;28;20396;-66
2024/01/17 07:34:48;;;;;;;31.67;21.07;;;1.10;99.90;;;1.10;86.50;99206.16;4975040;28;20446;-67
2024/01/17 07:37:18;;;;;;;32.70;19.90;;;1.10;99.90;;;1.20;86.05;99207.97;4975392;28;20051;-66
2024/01/17 07:39:48;;;;;;;34.20;21.40;;;1.30;99.90;;;1.26;85.47;99213.22;4975189;28;20409;-66
2024/01/17 07:42:18;;;;;;;33.83;19.37;;;1.30;99.90;;;1.25;85.50;99208.84;4974879;28;20043;-67
2024/01/17 07:44:46;;;;;;;33.42;20.27;;;1.40;99.90;;;1.43;85.35;99201.16;4975010;28;20420;-69
2024/01/17 07:47:15;;;;;;;32.97;20.87;;;1.50;99.90;;;1.59;84.78;99208.16;4975026;28;20051;-66
2024/01/17 07:49:45;;;;;;;33.90;19.80;;;1.60;99.90;;;1.79;84.38;99209.13;4973631;28;20050;-65
2024/01/17 07:52:14;;;;;;;;;;;1.70;99.90;;;1.81;83.57;99189.16;4974967;28;20042;-67
2024/01/17 07:54:43;;;;;;;32.00;18.57;;;1.80;99.90;;;1.89;83.60;99194.38;4974472;28;20025;-66
2024/01/17 07:57:12;;;;;;;33.33;20.15;;;1.90;99.90;;;1.93;82.78;99194.41;4974726;28;20047;-67
2024/01/17 07:59:41;;;;;;;30.17;21.07;;;1.90;99.90;;;1.97;82.73;99192.66;4989518;28;20043;-68
2024/01/17 08:02:11;;;;;;;30.27;19.23;;;1.90;99.90;;;1.92;82.21;99192.66;4974029;28;20054;-65
2024/01/17 08:04:39;;;;;;;36.47;20.50;;;1.90;99.90;;;1.98;82.15;99192.66;4973828;28;20105;-69
2024/01/17 08:07:08;;;;;;;30.00;20.10;;;1.90;99.90;;;2.04;81.93;99187.47;4974762;28;20122;-66
2024/01/17 08:09:36;;;;;;;28.83;19.17;;;2.00;99.90;;;2.12;81.72;99177.94;4974065;28;20051;-64
2024/01/17 08:12:08;;;;;;;33.97;19.53;;;2.00;99.90;;;2.23;81.61;99170.09;4974246;28;20381;-67
2024/01/17 08:14:36;;;;;;;37.63;21.30;;;2.10;99.90;;;2.31;81.33;99166.66;4974537;28;20129;-68
2024/01/17 08:17:05;;;;;;;29.97;19.43;;;2.20;99.90;;;2.27;81.23;99156.22;4974465;28;20134;-67
2024/01/17 08:19:34;;;;;;;33.13;19.73;;;2.30;99.90;;;2.15;81.06;99151.84;4974025;28;20069;-65
2024/01/17 08:22:03;;;;;;;33.83;19.17;;;2.10;99.90;;;2.04;81.53;99148.38;4974005;28;20058;-65
2024/01/17 08:24:33;;;;;;;31.45;19.38;;;2.00;99.90;;;1.86;81.96;99135.28;4974452;28;20050;-68
2024/01/17 08:27:01;;;;;;;30.73;19.40;;;1.90;99.90;;;2.12;81.97;99162.28;4974278;28;20055;-66
2024/01/17 08:29:31;;;;;;;32.17;18.63;;;2.00;99.90;;;2.02;82.39;99157.03;4974420;28;20057;-67
2024/01/17 08:31:59;;;;;;;30.58;18.20;;;1.90;99.90;;;1.88;82.69;99143.97;4973956;28;20057;-67
2024/01/17 08:34:27;;;;;;;28.67;19.37;;;1.80;99.90;;;1.92;83.02;99144.88;4973451;28;20065;-67
2024/01/17 08:36:56;;;;;;;32.43;19.47;;;1.80;99.90;;;1.84;83.42;99139.63;4973794;28;20122;-71
2024/01/17 08:39:24;;;;;;;31.67;19.07;;;1.70;99.90;;;1.82;83.35;99138.75;4974037;28;20070;-72
2024/01/17 08:41:54;;;;;;;28.65;17.65;;;1.70;99.90;;;1.90;83.32;99136.19;4973795;28;20488;-71
2024/01/17 08:44:23;;;;;;;30.10;20.30;;;1.80;99.90;;;1.85;83.26;99133.56;4973662;28;20058;-67
2024/01/17 08:46:53;;;;;;;29.63;19.77;;;1.80;99.90;;;1.89;83.17;99130.09;4974160;28;20046;-70
2024/01/17 08:49:22;;;;;;;30.70;19.40;;;1.80;99.90;;;1.72;83.64;99134.41;4973901;28;20050;-72
2024/01/17 08:51:50;;;;;;;31.47;19.10;;;1.70;99.90;;;1.75;83.75;99132.69;4973618;28;20383;-72
2024/01/17 08:54:19;;;;;;;33.30;19.90;;;1.70;99.90;;;1.74;83.95;99120.50;4973453;28;20478;-67
2024/01/17 08:56:48;;;;;;;29.77;18.73;;;1.70;99.90;;;1.58;84.31;99116.13;4973519;28;20468;-67
2024/01/17 08:59:17;;;;;;;35.97;19.75;;;1.50;99.90;;;1.38;85.74;99120.41;4973478;28;20587;-66
2024/01/17 09:01:46;;;;;;;38.47;20.20;;;1.30;99.90;;;1.29;86.33;99119.50;4973629;28;20046;-67
2024/01/17 09:04:16;;;;;;;32.17;20.30;;;1.20;99.90;;;1.13;86.74;99112.47;4973615;28;20408;-66
2024/01/17 09:06:44;;;;;;;29.92;20.05;;;1.10;99.90;;;1.10;87.29;99108.16;4973308;28;20106;-67
2024/01/17 09:09:14;;;;;;;33.50;20.30;;;1.10;99.90;;;1.05;87.59;99101.16;4973234;28;20085;-70
2024/01/17 09:11:43;;;;;;;34.67;20.95;;;1.00;99.90;;;0.90;88.18;99102.84;4973725;28;20059;-69
2024/01/17 09:14:11;;;;;;;29.97;20.30;;;0.80;99.90;;;0.77;88.55;99088.00;4972994;28;20043;-69
2024/01/17 09:16:40;;;;;;;31.10;20.87;;;0.80;99.90;;;0.80;89.49;99093.22;4973579;28;20105;-70
2024/01/17 09:19:08;;;;;;;31.60;20.53;;;0.70;99.90;;;1.04;88.70;99089.91;4973058;28;20074;-73
2024/01/17 09:21:39;;;;;;;55.75;21.25;;;0.90;99.90;;;1.04;88.64;99095.09;4973310;28;20070;-69
2024/01/17 09:24:08;;;;;;;34.45;21.02;;;0.90;99.90;;;1.37;88.18;99092.63;4973247;28;20046;-69
2024/01/17 09:26:36;;;;;;;31.07;19.90;;;1.20;99.90;;;1.30;87.14;99080.44;4972986;28;20053;-70
2024/01/17 09:29:05;;;;;;;31.27;20.00;;;1.20;99.90;;;1.40;87.01;99081.34;4972863;28;20071;-72
2024/01/17 09:31:33;;;;;;;35.67;20.20;;;1.30;99.90;;;1.38;86.78;99068.31;4972720;28;20054;-69
2024/01/17 09:34:01;;;;;;;33.97;19.77;;;1.30;99.90;;;1.04;87.11;99018.75;4972954;28;20396;-69
2024/01/17 09:36:30;;;;;;;35.20;21.13;;;1.20;99.90;;;1.37;86.26;99076.13;4972998;28;20059;-66
2024/01/17 09:39:00;;;;;;;35.67;21.80;;;1.30;99.90;;;1.30;86.19;99079.56;4973283;28;20137;-67
2024/01/17 09:41:28;;;;;;;34.17;21.73;;;1.30;99.90;;;1.06;87.16;99069.94;4973206;28;20538;-67
2024/01/17 09:43:57;;;;;;;35.10;22.13;;;1.10;99.90;;;0.90;87.81;99073.34;4973013;28;20078;-67
2024/01/17 09:46:27;;;;;;;34.23;21.30;;;0.90;99.90;;;1.03;88.04;99063.88;4987725;28;20145;-67
2024/01/17 09:48:55;;;;;;;32.08;21.55;;;0.90;99.90;;;0.79;88.15;99068.06;4973034;28;20066;-67
2024/01/17 09:51:28;;;;;;;30.67;20.57;;;0.70;99.90;;;0.83;88.90;99062.00;4972514;28;20043;-67
2024/01/17 09:54:04;;;;;;;33.58;22.20;;;0.80;99.90;;;0.82;89.43;99077.63;4972289;28;20047;-66
2024/01/17 09:56:34;;;;;;;32.33;22.23;;;0.70;99.90;;;0.72;89.73;99035.09;4972980;28;20408;-67
2024/01/17 09:59:16;;;;;;;29.47;21.07;;;0.80;99.90;;;0.90;89.95;99068.13;4972356;28;20097;-67
2024/01/17 10:01:45;;;;;;;38.60;22.03;;;0.80;99.90;;;1.05;89.06;99064.72;4972766;28;20074;-66
2024/01/17 10:04:14;;;;;;;30.57;21.40;;;0.90;99.90;;;1.18;89.27;99063.91;4972328;28;20127;-66
2024/01/17 10:06:44;;;;;;;34.53;21.43;;;1.00;99.90;;;1.14;88.82;99070.84;4972301;28;20053;-67
2024/01/17 10:09:15;;;;;;;33.70;19.92;;;1.00;99.90;;;0.30;87.99;98930.00;4972298;28;20042;-67
2024/01/17 10:11:44;;;;;;;35.07;21.80;;;1.00;99.90;;;1.12;88.66;99058.69;4972509;28;20061;-68
2024/01/17 10:14:15;;;;;;;36.50;21.33;;;1.00;99.90;;;1.00;88.17;99054.31;4972564;28;20051;-67
2024/01/17 10:16:43;;;;;;;28.97;20.53;;;0.90;99.90;;;0.99;88.62;99047.34;4972847;28;20058;-67
2024/01/17 10:19:12;;;;;;;33.30;20.37;;;0.90;99.90;;;0.98;88.16;99044.75;4972362;28;20039;-67
2024/01/17 10:21:41;;;;;;;32.87;21.97;;;0.90;99.90;;;1.03;88.13;99030.88;4972137;28;20042;-67
2024/01/17 10:24:11;;;;;;;27.40;20.53;;;0.90;99.90;;;1.14;88.12;99036.13;4972007;28;20042;-66
2024/01/17 10:26:43;;;;;;;26.80;20.23;;;1.00;99.90;;;1.12;87.77;99030.94;4971968;28;20146;-67